sensor_id;sensor_type;location;lat;lon;timestamp;P1;durP1;ratioP1;P2;durP2;ratioP2
19891;SDS011;10108;50.142;8.724;2023-02-01T00:02:00;10.68;;;9.00;;
19891;SDS011;10108;50.142;8.724;2023-02-01T00:04:27;10.52;;;8.93;;
19891;SDS011;10108;50.142;8.724;2023-02-01T00:06:54;11.70;;;9.07;;
19891;SDS011;10108;50.142;8.724;2023-02-01T00:09:20;12.35;;;8.60;;
19891;SDS011;10108;50.142;8.724;2023-02-01T00:11:47;11.30;;;9.02;;
19891;SDS011;10108;50.142;8.724;2023-02-01T00:14:13;12.10;;;8.85;;
19891;SDS011;10108;50.142;8.724;2023-02-01T00:16:40;11.45;;;8.68;;
19891;SDS011;10108;50.142;8.724;2023-02-01T00:19:10;14.70;;;8.70;;
19891;SDS011;10108;50.142;8.724;2023-02-01T00:21:37;11.52;;;8.98;;
19891;SDS011;10108;50.142;8.724;2023-02-01T00:24:03;15.15;;;8.57;;
19891;SDS011;10108;50.142;8.724;2023-02-01T00:26:31;12.52;;;8.57;;
19891;SDS011;10108;50.142;8.724;2023-02-01T00:28:58;10.95;;;8.45;;
19891;SDS011;10108;50.142;8.724;2023-02-01T00:31:25;10.57;;;8.27;;
19891;SDS011;10108;50.142;8.724;2023-02-01T00:33:52;13.73;;;8.68;;
19891;SDS011;10108;50.142;8.724;2023-02-01T00:36:18;11.55;;;8.60;;
19891;SDS011;10108;50.142;8.724;2023-02-01T00:38:44;12.02;;;8.30;;
19891;SDS011;10108;50.142;8.724;2023-02-01T00:41:12;12.93;;;8.30;;
19891;SDS011;10108;50.142;8.724;2023-02-01T00:43:39;11.85;;;7.95;;
19891;SDS011;10108;50.142;8.724;2023-02-01T00:46:05;13.15;;;8.85;;
19891;SDS011;10108;50.142;8.724;2023-02-01T00:48:32;12.27;;;8.07;;
19891;SDS011;10108;50.142;8.724;2023-02-01T00:51:02;11.25;;;8.70;;
19891;SDS011;10108;50.142;8.724;2023-02-01T00:53:29;11.52;;;8.07;;
19891;SDS011;10108;50.142;8.724;2023-02-01T00:55:56;10.13;;;7.97;;
19891;SDS011;10108;50.142;8.724;2023-02-01T00:58:23;10.63;;;7.80;;
19891;SDS011;10108;50.142;8.724;2023-02-01T01:01:00;11.32;;;8.45;;
19891;SDS011;10108;50.142;8.724;2023-02-01T01:03:28;12.23;;;7.80;;
19891;SDS011;10108;50.142;8.724;2023-02-01T01:05:59;12.07;;;8.43;;
19891;SDS011;10108;50.142;8.724;2023-02-01T01:08:25;11.38;;;7.75;;
19891;SDS011;10108;50.142;8.724;2023-02-01T01:10:52;13.10;;;7.88;;
19891;SDS011;10108;50.142;8.724;2023-02-01T01:13:18;10.30;;;7.90;;
19891;SDS011;10108;50.142;8.724;2023-02-01T01:15:45;10.93;;;8.20;;
19891;SDS011;10108;50.142;8.724;2023-02-01T01:18:11;11.25;;;8.27;;
19891;SDS011;10108;50.142;8.724;2023-02-01T01:20:39;14.48;;;8.25;;
19891;SDS011;10108;50.142;8.724;2023-02-01T01:23:06;12.93;;;7.90;;
19891;SDS011;10108;50.142;8.724;2023-02-01T01:25:36;14.98;;;8.50;;
19891;SDS011;10108;50.142;8.724;2023-02-01T01:28:03;14.05;;;8.55;;
19891;SDS011;10108;50.142;8.724;2023-02-01T01:30:29;15.18;;;8.70;;
19891;SDS011;10108;50.142;8.724;2023-02-01T01:32:56;11.70;;;8.77;;
19891;SDS011;10108;50.142;8.724;2023-02-01T01:35:22;11.15;;;8.60;;
19891;SDS011;10108;50.142;8.724;2023-02-01T01:37:49;13.18;;;9.05;;
19891;SDS011;10108;50.142;8.724;2023-02-01T01:40:15;13.43;;;8.68;;
19891;SDS011;10108;50.142;8.724;2023-02-01T01:42:42;15.10;;;8.95;;
19891;SDS011;10108;50.142;8.724;2023-02-01T01:47:37;13.45;;;9.68;;
19891;SDS011;10108;50.142;8.724;2023-02-01T01:50:07;13.20;;;9.50;;
19891;SDS011;10108;50.142;8.724;2023-02-01T01:52:34;13.30;;;9.50;;
19891;SDS011;10108;50.142;8.724;2023-02-01T01:55:01;12.57;;;9.20;;
19891;SDS011;10108;50.142;8.724;2023-02-01T01:57:29;16.45;;;9.60;;
19891;SDS011;10108;50.142;8.724;2023-02-01T02:00:03;13.68;;;9.63;;
19891;SDS011;10108;50.142;8.724;2023-02-01T02:02:39;13.93;;;9.93;;
19891;SDS011;10108;50.142;8.724;2023-02-01T02:05:06;13.77;;;10.18;;
19891;SDS011;10108;50.142;8.724;2023-02-01T02:07:37;15.25;;;9.82;;
19891;SDS011;10108;50.142;8.724;2023-02-01T02:10:06;14.65;;;9.50;;
19891;SDS011;10108;50.142;8.724;2023-02-01T02:12:39;14.57;;;10.50;;
19891;SDS011;10108;50.142;8.724;2023-02-01T02:15:10;13.95;;;9.88;;
19891;SDS011;10108;50.142;8.724;2023-02-01T02:22:45;16.80;;;9.65;;
19891;SDS011;10108;50.142;8.724;2023-02-01T02:33:39;16.60;;;9.75;;
19891;SDS011;10108;50.142;8.724;2023-02-01T02:38:25;14.45;;;9.43;;
19891;SDS011;10108;50.142;8.724;2023-02-01T02:41:00;13.65;;;9.20;;
19891;SDS011;10108;50.142;8.724;2023-02-01T02:43:37;15.75;;;9.70;;
19891;SDS011;10108;50.142;8.724;2023-02-01T02:46:32;14.57;;;9.60;;
19891;SDS011;10108;50.142;8.724;2023-02-01T02:49:26;13.85;;;9.80;;
19891;SDS011;10108;50.142;8.724;2023-02-01T02:51:59;12.52;;;9.52;;
19891;SDS011;10108;50.142;8.724;2023-02-01T02:54:47;15.02;;;9.75;;
19891;SDS011;10108;50.142;8.724;2023-02-01T02:57:19;15.13;;;10.20;;
19891;SDS011;10108;50.142;8.724;2023-02-01T03:00:06;14.95;;;9.57;;
19891;SDS011;10108;50.142;8.724;2023-02-01T03:02:53;20.08;;;10.73;;
19891;SDS011;10108;50.142;8.724;2023-02-01T03:05:44;15.00;;;9.57;;
19891;SDS011;10108;50.142;8.724;2023-02-01T03:08:15;14.60;;;9.70;;
19891;SDS011;10108;50.142;8.724;2023-02-01T03:10:57;14.57;;;9.95;;
19891;SDS011;10108;50.142;8.724;2023-02-01T03:18:56;15.65;;;9.95;;
19891;SDS011;10108;50.142;8.724;2023-02-01T03:21:26;18.15;;;10.02;;
19891;SDS011;10108;50.142;8.724;2023-02-01T03:23:55;15.65;;;10.38;;
19891;SDS011;10108;50.142;8.724;2023-02-01T03:26:23;16.02;;;10.18;;
19891;SDS011;10108;50.142;8.724;2023-02-01T03:28:54;12.98;;;9.65;;
19891;SDS011;10108;50.142;8.724;2023-02-01T03:31:22;16.35;;;9.98;;
19891;SDS011;10108;50.142;8.724;2023-02-01T03:33:49;13.73;;;9.80;;
19891;SDS011;10108;50.142;8.724;2023-02-01T03:38:50;14.20;;;9.50;;
19891;SDS011;10108;50.142;8.724;2023-02-01T03:41:23;18.38;;;9.43;;
19891;SDS011;10108;50.142;8.724;2023-02-01T03:46:38;14.00;;;9.25;;
19891;SDS011;10108;50.142;8.724;2023-02-01T03:49:08;15.18;;;9.13;;
19891;SDS011;10108;50.142;8.724;2023-02-01T03:51:37;17.33;;;9.00;;
19891;SDS011;10108;50.142;8.724;2023-02-01T03:54:04;14.05;;;9.13;;
19891;SDS011;10108;50.142;8.724;2023-02-01T03:56:32;17.08;;;8.55;;
19891;SDS011;10108;50.142;8.724;2023-02-01T03:59:00;16.00;;;8.57;;
19891;SDS011;10108;50.142;8.724;2023-02-01T04:01:32;15.00;;;8.95;;
19891;SDS011;10108;50.142;8.724;2023-02-01T04:03:58;15.43;;;8.48;;
19891;SDS011;10108;50.142;8.724;2023-02-01T04:06:25;12.50;;;8.15;;
19891;SDS011;10108;50.142;8.724;2023-02-01T04:08:53;12.85;;;8.55;;
19891;SDS011;10108;50.142;8.724;2023-02-01T04:11:20;12.05;;;8.70;;
19891;SDS011;10108;50.142;8.724;2023-02-01T04:13:46;14.73;;;8.63;;
19891;SDS011;10108;50.142;8.724;2023-02-01T04:16:13;13.38;;;8.07;;
19891;SDS011;10108;50.142;8.724;2023-02-01T04:18:39;14.35;;;8.15;;
19891;SDS011;10108;50.142;8.724;2023-02-01T04:21:06;12.60;;;7.88;;
19891;SDS011;10108;50.142;8.724;2023-02-01T04:23:32;11.23;;;8.20;;
19891;SDS011;10108;50.142;8.724;2023-02-01T04:26:00;13.70;;;8.68;;
19891;SDS011;10108;50.142;8.724;2023-02-01T04:28:27;14.70;;;8.10;;
19891;SDS011;10108;50.142;8.724;2023-02-01T04:30:53;12.63;;;8.43;;
19891;SDS011;10108;50.142;8.724;2023-02-01T04:33:20;12.07;;;8.38;;
19891;SDS011;10108;50.142;8.724;2023-02-01T04:35:46;13.40;;;7.85;;
19891;SDS011;10108;50.142;8.724;2023-02-01T04:38:13;13.35;;;8.35;;
19891;SDS011;10108;50.142;8.724;2023-02-01T04:40:39;12.75;;;8.20;;
19891;SDS011;10108;50.142;8.724;2023-02-01T04:43:06;15.80;;;8.40;;
19891;SDS011;10108;50.142;8.724;2023-02-01T04:45:33;11.73;;;8.20;;
19891;SDS011;10108;50.142;8.724;2023-02-01T04:47:59;13.35;;;8.63;;
19891;SDS011;10108;50.142;8.724;2023-02-01T04:50:26;12.52;;;8.38;;
19891;SDS011;10108;50.142;8.724;2023-02-01T04:52:52;12.07;;;8.52;;
19891;SDS011;10108;50.142;8.724;2023-02-01T04:55:19;17.52;;;9.27;;
19891;SDS011;10108;50.142;8.724;2023-02-01T04:57:45;14.75;;;9.40;;
19891;SDS011;10108;50.142;8.724;2023-02-01T05:00:12;15.02;;;9.60;;
19891;SDS011;10108;50.142;8.724;2023-02-01T05:02:38;16.88;;;9.10;;
19891;SDS011;10108;50.142;8.724;2023-02-01T05:05:05;15.20;;;9.18;;
19891;SDS011;10108;50.142;8.724;2023-02-01T05:07:31;13.98;;;9.80;;
19891;SDS011;10108;50.142;8.724;2023-02-01T05:09:58;15.65;;;8.95;;
19891;SDS011;10108;50.142;8.724;2023-02-01T05:12:24;14.18;;;9.35;;
19891;SDS011;10108;50.142;8.724;2023-02-01T05:15:09;14.73;;;9.30;;
19891;SDS011;10108;50.142;8.724;2023-02-01T05:17:36;15.40;;;8.52;;
19891;SDS011;10108;50.142;8.724;2023-02-01T05:20:03;13.88;;;8.98;;
19891;SDS011;10108;50.142;8.724;2023-02-01T05:22:29;13.65;;;9.20;;
19891;SDS011;10108;50.142;8.724;2023-02-01T05:24:55;14.98;;;9.50;;
19891;SDS011;10108;50.142;8.724;2023-02-01T05:27:22;13.00;;;8.68;;
19891;SDS011;10108;50.142;8.724;2023-02-01T05:29:48;14.13;;;9.40;;
19891;SDS011;10108;50.142;8.724;2023-02-01T05:32:15;15.27;;;8.82;;
19891;SDS011;10108;50.142;8.724;2023-02-01T05:34:41;14.57;;;8.82;;
19891;SDS011;10108;50.142;8.724;2023-02-01T05:37:08;13.88;;;9.18;;
19891;SDS011;10108;50.142;8.724;2023-02-01T05:39:34;13.50;;;8.70;;
19891;SDS011;10108;50.142;8.724;2023-02-01T05:42:01;12.73;;;8.57;;
19891;SDS011;10108;50.142;8.724;2023-02-01T05:44:27;14.88;;;8.70;;
19891;SDS011;10108;50.142;8.724;2023-02-01T05:46:53;13.98;;;9.02;;
19891;SDS011;10108;50.142;8.724;2023-02-01T05:49:20;16.45;;;8.60;;
19891;SDS011;10108;50.142;8.724;2023-02-01T05:51:46;12.43;;;7.85;;
19891;SDS011;10108;50.142;8.724;2023-02-01T05:54:13;12.48;;;8.30;;
19891;SDS011;10108;50.142;8.724;2023-02-01T05:56:39;13.00;;;8.07;;
19891;SDS011;10108;50.142;8.724;2023-02-01T05:59:06;14.85;;;8.23;;
19891;SDS011;10108;50.142;8.724;2023-02-01T06:01:33;18.88;;;8.38;;
19891;SDS011;10108;50.142;8.724;2023-02-01T06:03:59;16.45;;;8.75;;
19891;SDS011;10108;50.142;8.724;2023-02-01T06:06:26;18.95;;;8.75;;
19891;SDS011;10108;50.142;8.724;2023-02-01T06:08:52;14.57;;;7.88;;
19891;SDS011;10108;50.142;8.724;2023-02-01T06:11:18;18.63;;;8.10;;
19891;SDS011;10108;50.142;8.724;2023-02-01T06:13:45;16.67;;;7.50;;
19891;SDS011;10108;50.142;8.724;2023-02-01T06:16:11;15.90;;;7.65;;
19891;SDS011;10108;50.142;8.724;2023-02-01T06:18:40;18.00;;;7.70;;
19891;SDS011;10108;50.142;8.724;2023-02-01T06:21:07;13.75;;;7.60;;
19891;SDS011;10108;50.142;8.724;2023-02-01T06:23:33;17.40;;;7.47;;
19891;SDS011;10108;50.142;8.724;2023-02-01T06:26:01;18.55;;;7.25;;
19891;SDS011;10108;50.142;8.724;2023-02-01T06:28:28;17.70;;;7.50;;
19891;SDS011;10108;50.142;8.724;2023-02-01T06:30:55;19.88;;;7.63;;
19891;SDS011;10108;50.142;8.724;2023-02-01T06:33:23;16.13;;;7.80;;
19891;SDS011;10108;50.142;8.724;2023-02-01T06:35:56;12.73;;;7.80;;
19891;SDS011;10108;50.142;8.724;2023-02-01T06:38:24;19.17;;;8.23;;
19891;SDS011;10108;50.142;8.724;2023-02-01T06:40:52;17.35;;;7.53;;
19891;SDS011;10108;50.142;8.724;2023-02-01T06:43:18;19.05;;;8.20;;
19891;SDS011;10108;50.142;8.724;2023-02-01T06:45:44;16.83;;;7.60;;
19891;SDS011;10108;50.142;8.724;2023-02-01T06:48:11;14.90;;;7.65;;
19891;SDS011;10108;50.142;8.724;2023-02-01T06:50:37;15.90;;;7.80;;
19891;SDS011;10108;50.142;8.724;2023-02-01T06:53:04;14.43;;;7.75;;
19891;SDS011;10108;50.142;8.724;2023-02-01T06:55:30;18.23;;;7.50;;
19891;SDS011;10108;50.142;8.724;2023-02-01T06:57:57;16.27;;;8.13;;
19891;SDS011;10108;50.142;8.724;2023-02-01T07:00:23;14.18;;;8.02;;
19891;SDS011;10108;50.142;8.724;2023-02-01T07:02:50;15.18;;;7.88;;
19891;SDS011;10108;50.142;8.724;2023-02-01T07:05:16;18.40;;;8.05;;
19891;SDS011;10108;50.142;8.724;2023-02-01T07:07:43;18.35;;;7.90;;
19891;SDS011;10108;50.142;8.724;2023-02-01T07:10:10;19.08;;;7.68;;
19891;SDS011;10108;50.142;8.724;2023-02-01T07:12:36;17.80;;;7.90;;
19891;SDS011;10108;50.142;8.724;2023-02-01T07:15:03;12.77;;;7.25;;
19891;SDS011;10108;50.142;8.724;2023-02-01T07:17:30;18.95;;;8.10;;
19891;SDS011;10108;50.142;8.724;2023-02-01T07:19:56;20.70;;;7.70;;
19891;SDS011;10108;50.142;8.724;2023-02-01T07:22:25;16.63;;;8.18;;
19891;SDS011;10108;50.142;8.724;2023-02-01T07:24:52;17.38;;;8.27;;
19891;SDS011;10108;50.142;8.724;2023-02-01T07:27:18;16.52;;;8.05;;
19891;SDS011;10108;50.142;8.724;2023-02-01T07:29:45;15.55;;;7.82;;
19891;SDS011;10108;50.142;8.724;2023-02-01T07:32:11;17.42;;;7.65;;
19891;SDS011;10108;50.142;8.724;2023-02-01T07:34:38;19.88;;;7.47;;
19891;SDS011;10108;50.142;8.724;2023-02-01T07:37:04;15.15;;;7.15;;
19891;SDS011;10108;50.142;8.724;2023-02-01T07:39:31;16.90;;;7.50;;
19891;SDS011;10108;50.142;8.724;2023-02-01T07:41:58;16.98;;;7.63;;
19891;SDS011;10108;50.142;8.724;2023-02-01T07:44:25;15.38;;;7.38;;
19891;SDS011;10108;50.142;8.724;2023-02-01T07:46:51;21.73;;;8.00;;
19891;SDS011;10108;50.142;8.724;2023-02-01T07:49:18;17.02;;;7.57;;
19891;SDS011;10108;50.142;8.724;2023-02-01T07:51:44;18.23;;;7.00;;
19891;SDS011;10108;50.142;8.724;2023-02-01T07:54:10;16.05;;;6.75;;
19891;SDS011;10108;50.142;8.724;2023-02-01T07:56:37;18.63;;;7.30;;
19891;SDS011;10108;50.142;8.724;2023-02-01T07:59:03;14.43;;;7.63;;
19891;SDS011;10108;50.142;8.724;2023-02-01T08:01:30;15.18;;;7.22;;
19891;SDS011;10108;50.142;8.724;2023-02-01T08:03:57;15.77;;;7.20;;
19891;SDS011;10108;50.142;8.724;2023-02-01T08:06:24;19.27;;;7.20;;
19891;SDS011;10108;50.142;8.724;2023-02-01T08:08:51;21.90;;;7.20;;
19891;SDS011;10108;50.142;8.724;2023-02-01T08:11:19;17.75;;;7.60;;
19891;SDS011;10108;50.142;8.724;2023-02-01T08:13:46;17.35;;;7.10;;
19891;SDS011;10108;50.142;8.724;2023-02-01T08:16:13;17.45;;;7.20;;
19891;SDS011;10108;50.142;8.724;2023-02-01T08:18:41;20.63;;;7.20;;
19891;SDS011;10108;50.142;8.724;2023-02-01T08:21:08;16.58;;;6.97;;
19891;SDS011;10108;50.142;8.724;2023-02-01T08:23:36;18.90;;;6.85;;
19891;SDS011;10108;50.142;8.724;2023-02-01T08:28:35;15.52;;;6.30;;
19891;SDS011;10108;50.142;8.724;2023-02-01T08:31:06;18.55;;;6.78;;
19891;SDS011;10108;50.142;8.724;2023-02-01T08:33:33;17.65;;;6.90;;
19891;SDS011;10108;50.142;8.724;2023-02-01T08:36:06;19.92;;;7.50;;
19891;SDS011;10108;50.142;8.724;2023-02-01T08:38:34;21.02;;;7.63;;
19891;SDS011;10108;50.142;8.724;2023-02-01T08:41:20;20.20;;;7.85;;
19891;SDS011;10108;50.142;8.724;2023-02-01T08:43:47;14.00;;;6.45;;
19891;SDS011;10108;50.142;8.724;2023-02-01T08:46:14;12.60;;;6.47;;
19891;SDS011;10108;50.142;8.724;2023-02-01T08:48:41;13.70;;;6.53;;
19891;SDS011;10108;50.142;8.724;2023-02-01T08:51:09;13.77;;;6.47;;
19891;SDS011;10108;50.142;8.724;2023-02-01T08:53:36;18.75;;;6.68;;
19891;SDS011;10108;50.142;8.724;2023-02-01T08:56:04;17.02;;;6.72;;
19891;SDS011;10108;50.142;8.724;2023-02-01T08:58:30;17.27;;;6.93;;
19891;SDS011;10108;50.142;8.724;2023-02-01T09:00:57;19.00;;;6.88;;
19891;SDS011;10108;50.142;8.724;2023-02-01T09:03:28;22.65;;;6.97;;
19891;SDS011;10108;50.142;8.724;2023-02-01T09:05:59;13.75;;;6.53;;
19891;SDS011;10108;50.142;8.724;2023-02-01T09:08:26;21.60;;;7.32;;
19891;SDS011;10108;50.142;8.724;2023-02-01T09:10:52;16.05;;;6.63;;
19891;SDS011;10108;50.142;8.724;2023-02-01T09:13:18;14.38;;;6.38;;
19891;SDS011;10108;50.142;8.724;2023-02-01T09:15:45;17.88;;;7.13;;
19891;SDS011;10108;50.142;8.724;2023-02-01T09:18:12;17.58;;;6.65;;
19891;SDS011;10108;50.142;8.724;2023-02-01T09:20:38;18.27;;;6.55;;
19891;SDS011;10108;50.142;8.724;2023-02-01T09:23:05;18.23;;;6.82;;
19891;SDS011;10108;50.142;8.724;2023-02-01T09:25:32;21.90;;;6.72;;
19891;SDS011;10108;50.142;8.724;2023-02-01T09:27:59;17.10;;;6.72;;
19891;SDS011;10108;50.142;8.724;2023-02-01T09:30:25;15.27;;;6.65;;
19891;SDS011;10108;50.142;8.724;2023-02-01T09:32:52;19.60;;;6.90;;
19891;SDS011;10108;50.142;8.724;2023-02-01T09:35:18;16.80;;;6.47;;
19891;SDS011;10108;50.142;8.724;2023-02-01T09:37:44;18.13;;;6.40;;
19891;SDS011;10108;50.142;8.724;2023-02-01T09:40:14;16.30;;;6.57;;
19891;SDS011;10108;50.142;8.724;2023-02-01T09:45:40;18.52;;;6.63;;
19891;SDS011;10108;50.142;8.724;2023-02-01T09:48:17;14.95;;;6.53;;
19891;SDS011;10108;50.142;8.724;2023-02-01T09:50:48;17.38;;;6.35;;
19891;SDS011;10108;50.142;8.724;2023-02-01T09:55:43;15.48;;;6.28;;
19891;SDS011;10108;50.142;8.724;2023-02-01T09:58:22;16.92;;;6.60;;
19891;SDS011;10108;50.142;8.724;2023-02-01T10:00:55;13.60;;;5.97;;
19891;SDS011;10108;50.142;8.724;2023-02-01T10:03:23;16.58;;;6.47;;
19891;SDS011;10108;50.142;8.724;2023-02-01T10:08:29;13.27;;;6.20;;
19891;SDS011;10108;50.142;8.724;2023-02-01T10:11:46;17.88;;;6.50;;
19891;SDS011;10108;50.142;8.724;2023-02-01T10:22:10;17.40;;;6.70;;
19891;SDS011;10108;50.142;8.724;2023-02-01T10:24:46;22.92;;;6.35;;
19891;SDS011;10108;50.142;8.724;2023-02-01T10:27:21;18.83;;;6.65;;
19891;SDS011;10108;50.142;8.724;2023-02-01T10:29:52;12.95;;;5.80;;
19891;SDS011;10108;50.142;8.724;2023-02-01T10:32:24;19.73;;;6.18;;
19891;SDS011;10108;50.142;8.724;2023-02-01T10:34:58;17.27;;;6.53;;
19891;SDS011;10108;50.142;8.724;2023-02-01T10:37:29;15.02;;;6.32;;
19891;SDS011;10108;50.142;8.724;2023-02-01T10:39:57;16.63;;;6.10;;
19891;SDS011;10108;50.142;8.724;2023-02-01T10:42:26;13.07;;;5.82;;
19891;SDS011;10108;50.142;8.724;2023-02-01T10:44:53;15.75;;;5.95;;
19891;SDS011;10108;50.142;8.724;2023-02-01T10:47:20;14.73;;;5.53;;
19891;SDS011;10108;50.142;8.724;2023-02-01T10:49:52;17.45;;;5.90;;
19891;SDS011;10108;50.142;8.724;2023-02-01T10:54:53;15.02;;;5.97;;
19891;SDS011;10108;50.142;8.724;2023-02-01T10:57:23;17.13;;;6.10;;
19891;SDS011;10108;50.142;8.724;2023-02-01T10:59:51;16.23;;;5.63;;
19891;SDS011;10108;50.142;8.724;2023-02-01T11:02:31;12.10;;;5.47;;
19891;SDS011;10108;50.142;8.724;2023-02-01T11:05:05;16.52;;;5.97;;
19891;SDS011;10108;50.142;8.724;2023-02-01T11:07:38;14.25;;;6.00;;
19891;SDS011;10108;50.142;8.724;2023-02-01T11:10:05;10.77;;;5.72;;
19891;SDS011;10108;50.142;8.724;2023-02-01T11:12:38;14.73;;;6.18;;
19891;SDS011;10108;50.142;8.724;2023-02-01T11:15:15;17.42;;;6.10;;
19891;SDS011;10108;50.142;8.724;2023-02-01T11:17:45;15.32;;;6.40;;
19891;SDS011;10108;50.142;8.724;2023-02-01T11:20:16;13.65;;;6.13;;
19891;SDS011;10108;50.142;8.724;2023-02-01T11:22:52;17.95;;;6.30;;
19891;SDS011;10108;50.142;8.724;2023-02-01T11:25:20;16.52;;;6.20;;
19891;SDS011;10108;50.142;8.724;2023-02-01T11:27:50;17.90;;;6.38;;
19891;SDS011;10108;50.142;8.724;2023-02-01T11:30:18;13.18;;;6.32;;
19891;SDS011;10108;50.142;8.724;2023-02-01T11:32:48;13.65;;;6.20;;
19891;SDS011;10108;50.142;8.724;2023-02-01T11:35:17;19.63;;;6.60;;
19891;SDS011;10108;50.142;8.724;2023-02-01T11:37:49;19.00;;;6.25;;
19891;SDS011;10108;50.142;8.724;2023-02-01T11:43:26;21.08;;;6.40;;
19891;SDS011;10108;50.142;8.724;2023-02-01T11:45:33;18.05;;;6.43;;
19891;SDS011;10108;50.142;8.724;2023-02-01T11:48:09;13.48;;;6.00;;
19891;SDS011;10108;50.142;8.724;2023-02-01T12:01:13;20.15;;;6.05;;
19891;SDS011;10108;50.142;8.724;2023-02-01T12:06:23;16.23;;;5.93;;
19891;SDS011;10108;50.142;8.724;2023-02-01T12:11:58;20.75;;;6.78;;
19891;SDS011;10108;50.142;8.724;2023-02-01T12:25:07;14.82;;;6.70;;
19891;SDS011;10108;50.142;8.724;2023-02-01T12:30:41;13.63;;;6.15;;
19891;SDS011;10108;50.142;8.724;2023-02-01T12:38:29;15.32;;;6.22;;
19891;SDS011;10108;50.142;8.724;2023-02-01T12:46:24;14.18;;;6.30;;
19891;SDS011;10108;50.142;8.724;2023-02-01T12:48:55;13.88;;;6.07;;
19891;SDS011;10108;50.142;8.724;2023-02-01T12:51:24;20.58;;;6.00;;
19891;SDS011;10108;50.142;8.724;2023-02-01T12:53:55;19.00;;;6.28;;
19891;SDS011;10108;50.142;8.724;2023-02-01T12:56:31;16.60;;;6.68;;
19891;SDS011;10108;50.142;8.724;2023-02-01T12:58:59;17.52;;;6.38;;
19891;SDS011;10108;50.142;8.724;2023-02-01T13:01:45;13.23;;;6.38;;
19891;SDS011;10108;50.142;8.724;2023-02-01T13:04:19;15.15;;;6.20;;
19891;SDS011;10108;50.142;8.724;2023-02-01T13:06:51;19.65;;;6.72;;
19891;SDS011;10108;50.142;8.724;2023-02-01T13:09:20;19.20;;;7.03;;
19891;SDS011;10108;50.142;8.724;2023-02-01T13:11:48;19.50;;;6.60;;
19891;SDS011;10108;50.142;8.724;2023-02-01T13:14:23;20.90;;;6.63;;
19891;SDS011;10108;50.142;8.724;2023-02-01T13:16:52;22.98;;;6.75;;
19891;SDS011;10108;50.142;8.724;2023-02-01T13:21:53;17.45;;;6.45;;
19891;SDS011;10108;50.142;8.724;2023-02-01T13:27:11;14.02;;;6.38;;
19891;SDS011;10108;50.142;8.724;2023-02-01T13:29:41;19.83;;;6.85;;
19891;SDS011;10108;50.142;8.724;2023-02-01T13:45:29;16.17;;;6.07;;
19891;SDS011;10108;50.142;8.724;2023-02-01T13:47:57;13.27;;;6.32;;
19891;SDS011;10108;50.142;8.724;2023-02-01T13:50:29;16.45;;;6.25;;
19891;SDS011;10108;50.142;8.724;2023-02-01T13:52:58;13.95;;;6.38;;
19891;SDS011;10108;50.142;8.724;2023-02-01T13:55:26;18.77;;;6.50;;
19891;SDS011;10108;50.142;8.724;2023-02-01T13:58:04;18.67;;;6.00;;
19891;SDS011;10108;50.142;8.724;2023-02-01T14:00:36;11.85;;;5.50;;
19891;SDS011;10108;50.142;8.724;2023-02-01T14:10:50;16.92;;;6.38;;
19891;SDS011;10108;50.142;8.724;2023-02-01T14:23:38;13.00;;;6.25;;
19891;SDS011;10108;50.142;8.724;2023-02-01T14:26:06;15.68;;;5.90;;
19891;SDS011;10108;50.142;8.724;2023-02-01T14:28:34;18.60;;;6.30;;
19891;SDS011;10108;50.142;8.724;2023-02-01T14:31:06;16.20;;;5.90;;
19891;SDS011;10108;50.142;8.724;2023-02-01T14:33:40;15.45;;;5.60;;
19891;SDS011;10108;50.142;8.724;2023-02-01T14:36:08;15.25;;;5.85;;
19891;SDS011;10108;50.142;8.724;2023-02-01T14:38:36;15.73;;;6.07;;
19891;SDS011;10108;50.142;8.724;2023-02-01T14:44:12;14.32;;;5.95;;
19891;SDS011;10108;50.142;8.724;2023-02-01T14:49:22;16.25;;;5.80;;
19891;SDS011;10108;50.142;8.724;2023-02-01T14:51:49;17.65;;;5.72;;
19891;SDS011;10108;50.142;8.724;2023-02-01T14:54:16;15.05;;;5.57;;
19891;SDS011;10108;50.142;8.724;2023-02-01T14:56:45;14.18;;;5.95;;
19891;SDS011;10108;50.142;8.724;2023-02-01T14:59:13;17.23;;;5.90;;
19891;SDS011;10108;50.142;8.724;2023-02-01T15:01:50;14.38;;;5.88;;
19891;SDS011;10108;50.142;8.724;2023-02-01T15:04:18;12.65;;;5.57;;
19891;SDS011;10108;50.142;8.724;2023-02-01T15:06:56;14.10;;;5.90;;
19891;SDS011;10108;50.142;8.724;2023-02-01T15:12:32;14.05;;;6.05;;
19891;SDS011;10108;50.142;8.724;2023-02-01T15:14:41;14.90;;;6.05;;
19891;SDS011;10108;50.142;8.724;2023-02-01T15:19:56;14.20;;;6.07;;
19891;SDS011;10108;50.142;8.724;2023-02-01T15:22:23;16.42;;;5.95;;
19891;SDS011;10108;50.142;8.724;2023-02-01T15:24:55;10.55;;;5.60;;
19891;SDS011;10108;50.142;8.724;2023-02-01T15:27:22;13.82;;;5.65;;
19891;SDS011;10108;50.142;8.724;2023-02-01T15:29:49;14.95;;;5.82;;
19891;SDS011;10108;50.142;8.724;2023-02-01T15:32:32;13.30;;;5.47;;
19891;SDS011;10108;50.142;8.724;2023-02-01T15:34:59;10.48;;;5.30;;
19891;SDS011;10108;50.142;8.724;2023-02-01T15:37:26;15.10;;;5.85;;
19891;SDS011;10108;50.142;8.724;2023-02-01T15:40:03;14.13;;;6.10;;
19891;SDS011;10108;50.142;8.724;2023-02-01T15:42:29;17.30;;;5.72;;
19891;SDS011;10108;50.142;8.724;2023-02-01T15:44:56;13.07;;;5.80;;
19891;SDS011;10108;50.142;8.724;2023-02-01T15:47:26;9.68;;;5.32;;
19891;SDS011;10108;50.142;8.724;2023-02-01T15:49:55;14.50;;;5.82;;
19891;SDS011;10108;50.142;8.724;2023-02-01T15:55:18;13.68;;;5.20;;
19891;SDS011;10108;50.142;8.724;2023-02-01T15:57:45;15.23;;;5.90;;
19891;SDS011;10108;50.142;8.724;2023-02-01T16:00:22;13.38;;;5.82;;
19891;SDS011;10108;50.142;8.724;2023-02-01T16:02:51;12.45;;;5.85;;
19891;SDS011;10108;50.142;8.724;2023-02-01T16:05:38;10.50;;;5.60;;
19891;SDS011;10108;50.142;8.724;2023-02-01T16:08:09;16.73;;;5.95;;
19891;SDS011;10108;50.142;8.724;2023-02-01T16:10:40;13.10;;;5.50;;
19891;SDS011;10108;50.142;8.724;2023-02-01T16:13:07;18.65;;;5.95;;
19891;SDS011;10108;50.142;8.724;2023-02-01T16:15:33;12.05;;;5.53;;
19891;SDS011;10108;50.142;8.724;2023-02-01T16:17:59;14.30;;;5.65;;
19891;SDS011;10108;50.142;8.724;2023-02-01T16:20:26;10.40;;;5.30;;
19891;SDS011;10108;50.142;8.724;2023-02-01T16:22:52;13.63;;;5.78;;
19891;SDS011;10108;50.142;8.724;2023-02-01T16:25:19;16.92;;;5.70;;
19891;SDS011;10108;50.142;8.724;2023-02-01T16:27:45;12.88;;;5.30;;
19891;SDS011;10108;50.142;8.724;2023-02-01T16:30:12;17.02;;;5.85;;
19891;SDS011;10108;50.142;8.724;2023-02-01T16:32:38;14.90;;;5.65;;
19891;SDS011;10108;50.142;8.724;2023-02-01T16:35:13;14.25;;;5.55;;
19891;SDS011;10108;50.142;8.724;2023-02-01T16:37:44;19.40;;;5.63;;
19891;SDS011;10108;50.142;8.724;2023-02-01T16:40:14;14.07;;;5.30;;
19891;SDS011;10108;50.142;8.724;2023-02-01T16:42:40;16.77;;;5.30;;
19891;SDS011;10108;50.142;8.724;2023-02-01T16:45:07;17.90;;;5.45;;
19891;SDS011;10108;50.142;8.724;2023-02-01T16:47:34;11.50;;;5.43;;
19891;SDS011;10108;50.142;8.724;2023-02-01T16:50:02;12.82;;;5.30;;
19891;SDS011;10108;50.142;8.724;2023-02-01T16:52:28;10.82;;;5.25;;
19891;SDS011;10108;50.142;8.724;2023-02-01T16:54:55;17.40;;;6.18;;
19891;SDS011;10108;50.142;8.724;2023-02-01T16:57:21;15.00;;;5.18;;
19891;SDS011;10108;50.142;8.724;2023-02-01T16:59:49;16.58;;;5.00;;
19891;SDS011;10108;50.142;8.724;2023-02-01T17:02:16;14.02;;;5.72;;
19891;SDS011;10108;50.142;8.724;2023-02-01T17:04:44;12.57;;;4.95;;
19891;SDS011;10108;50.142;8.724;2023-02-01T17:07:14;14.32;;;5.38;;
19891;SDS011;10108;50.142;8.724;2023-02-01T17:09:41;14.60;;;5.30;;